Station: Bellambi  

  Atmospheric Gas Attenuation - ITU Rec 676-11   ----------------- dB/100km -----------------
Date Time Temp RH % AH g/m3 Dew Point Wind Direction Speed kph Gust kph Barometer mB Rainfall Since 9am 24GHz 47GHz 76GHz 122GHz 134GHz 241GHz
08/05 12:30 19.6 39 6.58 5.3 20 39 1013.1 0 15.1 21.4 29.8 77.8 67.6 231.3
08/05 12:20 19.6 39 6.58 5.3 19 24 1013.1 0 15.1 21.4 29.8 77.8 67.6 231.3
08/05 12:10 19.2 39 6.43 4.9 22 28 1013.1 0 14.8 21.2 29.4 76.8 66.2 226.4
08/05 12:00 19.5 42 7.05 6.3 19 30 1013.1 0 16.1 22.0 31.5 82.3 73.1 250.4
08/05 11:50 19.1 41 6.72 5.6 22 26 1013.1 0 15.4 21.7 30.5 79.6 69.6 238.3
08/05 11:40 19.3 42 6.97 6.1 15 19 1013.1 0 15.9 22.0 31.3 81.7 72.3 247.8
08/05 11:30 18.8 42 6.76 5.6 20 35 1013.1 0 15.5 21.8 30.7 80.3 70.4 240.8
08/05 11:20 18.5 43 6.8 5.7 20 28 1013.1 0 15.6 21.9 31.0 80.9 71.1 243.3
08/05 11:10 18.2 43 6.68 5.4 15 19 1013.1 0 15.3 21.8 30.7 80.1 70.0 239.3
08/05 11:00 18.3 43 6.72 5.5 19 33 1013.1 0 15.4 21.9 30.8 80.4 70.3 240.7
08/05 10:50 17.8 44 6.68 5.4 19 24 1013.1 0 15.3 21.9 30.8 80.5 70.3 240.5
08/05 10:40 17.8 44 6.68 5.4 19 26 1013.1 0 15.3 21.9 30.8 80.5 70.3 240.5
08/05 10:30 17.4 45 6.67 5.4 20 32 1013.1 0 15.3 22.0 30.9 80.8 70.5 241.3
08/05 10:20 17.2 45 6.59 5.2 19 24 1013.1 0 15.2 21.9 30.7 80.3 69.8 238.6
08/05 10:10 17.2 46 6.74 5.5 19 26 1013.1 0 15.5 22.1 31.3 81.7 71.5 244.8
08/05 10:00 16.3 45 6.24 4.4 28 43 1013.1 0 14.5 21.6 29.8 77.8 66.5 226.8
08/05 09:50 16.5 46 6.46 4.9 22 30 1013.1 0 14.9 21.9 30.5 79.7 68.9 235.3
08/05 09:40 16.3 49 6.8 5.6 13 19 1013.1 0 15.7 22.4 31.8 83.2 73.1 250.0
08/05 09:30 15.8 50 6.73 5.4 24 35 1013.1 0 15.5 22.5 31.8 83.0 72.7 248.6
08/05 09:20 15.8 49 6.6 5.1 26 41 1013.1 0 15.3 22.3 31.3 81.7 71.1 243.2
08/05 09:10 15.6 50 6.65 5.2 19 22 1013.1 0 15.4 22.4 31.5 82.4 71.9 245.9
08/05 09:00 15.3 50 6.53 5 17 32 1013.1 0 15.1 22.3 31.2 81.6 70.7 241.7
08/05 08:50 15.2 51 6.62 5.1 11 15 1013.1 0 15.3 22.5 31.6 82.6 71.9 245.8
08/05 08:40 14.6 51 6.38 4.6 11 17 1013.1 0 14.8 22.2 31.0 80.8 69.6 237.5
08/05 08:30 14.4 52 6.43 4.7 15 26 1013.1 0 14.9 22.4 31.2 81.5 70.3 240.2
08/05 08:20 14 52 6.27 4.3 24 33 1013.1 0 14.6 22.2 30.8 80.4 68.8 234.6
08/05 08:10 13.6 53 6.24 4.2 20 28 1013.1 0 14.6 22.3 30.8 80.5 68.7 234.5
08/05 08:00 13.3 54 6.24 4.2 17 41 1013.1 0 14.6 22.4 30.9 80.8 69.0 235.4
08/05 07:50 13 55 6.24 4.2 15 19 1013.1 0 14.6 22.4 31.0 81.1 69.3 236.3
08/05 07:40 12.8 55 6.16 4 13 20 1013.1 0 14.4 22.4 30.8 80.5 68.5 233.4
08/05 07:30 12.5 56 6.16 4 15 24 1013.1 0 14.4 22.4 30.9 80.8 68.7 234.3
08/05 07:20 12.3 56 6.08 3.8 17 19 1013.1 0 14.3 22.4 30.7 80.2 67.9 231.5
08/05 07:10 12 56 5.97 3.5 22 28 1013.1 0 14.1 22.3 30.4 79.4 66.8 227.6
08/05 07:00 11.9 56 5.93 3.4 22 43 1013.1 0 14.0 22.2 30.3 79.1 66.4 226.2
08/05 06:50 11.9 56 5.93 3.4 22 32 1013.1 0 14.0 22.2 30.3 79.1 66.4 226.2
08/05 06:40 11.8 56 5.89 3.3 22 30 1013.1 0 13.9 22.2 30.2 78.8 66.0 224.7
08/05 06:30 11.7 56 5.86 3.2 19 37 1013.1 0 13.8 22.2 30.1 78.6 65.7 223.7
08/05 06:20 11.8 55 5.79 3.1 26 39 1013.1 0 13.7 22.1 29.8 77.8 64.8 220.4
08/05 06:10 11.7 55 5.75 3 17 22 1013.1 0 13.6 22.0 29.7 77.5 64.4 219.0
08/05 06:00 11.6 55 5.72 2.9 22 43 1013.1 0 13.5 22.0 29.7 77.3 64.1 218.0
08/05 05:50 11.7 55 5.75 3 26 33 1013.1 0 13.6 22.0 29.7 77.5 64.4 219.0
08/05 05:40 11.7 54 5.65 2.7 24 28 1013.1 0 13.4 21.9 29.4 76.5 63.2 214.7
08/05 05:30 11.9 53 5.61 2.6 22 39 1013.1 0 13.3 21.8 29.1 76.0 62.5 212.5
08/05 05:20 11.7 53 5.54 2.5 19 26 1013.1 0 13.2 21.7 29.0 75.5 61.9 210.1
08/05 05:10 11.8 53 5.58 2.5 26 28 1013.1 0 13.2 21.7 29.1 75.8 62.3 211.5
08/05 05:00 11.7 53 5.54 2.5 28 46 1013.1 0 13.2 21.7 29.0 75.5 61.9 210.1
08/05 04:50 11.7 53 5.54 2.5 26 30 1013.1 0 13.2 21.7 29.0 75.5 61.9 210.1
08/05 04:40 11.7 53 5.54 2.5 33 43 1013.1 0 13.2 21.7 29.0 75.5 61.9 210.1
08/05 04:30 11.7 53 5.54 2.5 28 50 1013.1 0 13.2 21.7 29.0 75.5 61.9 210.1
08/05 04:20 11.6 52 5.41 2.1 26 35 1013.1 0 12.9 21.5 28.5 74.3 60.4 204.8
08/05 04:10 11.5 53 5.48 2.3 30 35 1013.1 0 13.0 21.7 28.8 75.1 61.3 208.1
08/05 04:00 11.6 53 5.51 2.4 28 48 1013.1 0 13.1 21.7 28.9 75.3 61.6 209.1
08/05 03:50 11.4 53 5.44 2.2 19 24 1013.1 0 13.0 21.6 28.7 74.8 60.9 206.6
08/05 03:40 11.4 53 5.44 2.2 24 33 1013.1 0 13.0 21.6 28.7 74.8 60.9 206.6
08/05 03:30 11.3 53 5.41 2.1 24 41 1013.1 0 12.9 21.6 28.6 74.6 60.6 205.6
08/05 03:20 11.3 53 5.41 2.1 22 26 1013.1 0 12.9 21.6 28.6 74.6 60.6 205.6
08/05 03:10 11.4 53 5.44 2.2 20 24 1013.1 0 13.0 21.6 28.7 74.8 60.9 206.6
08/05 03:00 11.2 53 5.37 2 28 48 1013.1 0 12.8 21.6 28.5 74.3 60.2 204.2
08/05 02:50 11.3 53 5.41 2.1 33 39 1013.1 0 12.9 21.6 28.6 74.6 60.6 205.6
08/05 02:40 11.2 53 5.37 2 30 35 1013.1 0 12.8 21.6 28.5 74.3 60.2 204.2
08/05 02:30 11.1 53 5.34 1.9 28 43 1013.1 0 12.7 21.6 28.4 74.1 59.9 203.1
08/05 02:20 11 53 5.31 1.8 28 35 1013.1 0 12.7 21.5 28.4 73.9 59.6 202.1
08/05 02:10 10.9 53 5.27 1.7 24 33 1013.1 0 12.6 21.5 28.3 73.6 59.2 200.7
08/05 02:00 11 52 5.21 1.5 30 52 1013.1 0 12.5 21.4 28.0 72.9 58.4 197.9
08/05 01:50 11 52 5.21 1.5 35 44 1013.1 0 12.5 21.4 28.0 72.9 58.4 197.9
08/05 01:40 10.9 52 5.17 1.4 24 33 1013.1 0 12.4 21.3 27.9 72.6 58.0 196.5
08/05 01:30 11 51 5.11 1.3 30 50 1013.1 0 12.3 21.2 27.6 71.9 57.2 193.7
08/05 01:20 11 51 5.11 1.3 30 41 1013.1 0 12.3 21.2 27.6 71.9 57.2 193.7
08/05 01:10 10.8 51 5.04 1.1 32 50 1013.1 0 12.1 21.2 27.5 71.4 56.5 191.2
08/05 01:00 10.7 51 5.01 1 28 46 1013.1 0 12.1 21.2 27.4 71.2 56.2 190.2
08/05 00:50 10.8 50 4.94 0.8 37 43 1013.1 0 11.9 21.0 27.1 70.5 55.3 187.0
08/05 00:40 10.7 50 4.91 0.7 33 44 1013.1 0 11.8 21.0 27.0 70.3 55.0 186.0
08/05 00:20 10.7 49 4.81 0.4 30 44 1013.1 0 11.6 20.9 26.7 69.3 53.9 181.9
08/05 00:10 10.7 48 4.72 0.2 32 41 1013.1 0 11.4 20.7 26.3 68.4 52.8 178.1
08/05 00:00 10.8 47 4.65 0 30 46 1013.1 0 11.3 20.6 26.1 67.7 51.9 175.0
07/05 23:50 10.9 47 4.68 0 30 35 1013.1 0 11.4 20.6 26.1 67.9 52.2 176.0
07/05 23:40 10.9 47 4.68 0 24 28 1013.1 0 11.4 20.6 26.1 67.9 52.2 176.0
07/05 23:30 10.9 47 4.68 0 28 39 1013.1 0 11.4 20.6 26.1 67.9 52.2 176.0
07/05 23:20 11 47 4.71 0.1 24 37 1013.1 0 11.4 20.7 26.2 68.1 52.5 177.0
07/05 23:10 11 47 4.71 0.1 24 32 1013.1 0 11.4 20.7 26.2 68.1 52.5 177.0
07/05 23:00 11 46 4.61 -0.2 26 41 1013.1 0 11.2 20.5 25.9 67.1 51.3 172.9
07/05 22:50 11.1 46 4.63 -0.1 22 30 1013.1 0 11.2 20.5 25.9 67.3 51.5 173.5
07/05 22:40 11 47 4.71 0.1 24 33 1013.1 0 11.4 20.7 26.2 68.1 52.5 177.0
07/05 22:30 11 47 4.71 0.1 26 43 1013.1 0 11.4 20.7 26.2 68.1 52.5 177.0
07/05 22:20 11 47 4.71 0.1 26 35 1013.1 0 11.4 20.7 26.2 68.1 52.5 177.0
07/05 22:10 11.2 46 4.66 0 19 28 1013.1 0 11.3 20.5 26.0 67.5 51.8 174.6
07/05 22:00 11.1 46 4.63 -0.1 24 39 1013.1 0 11.2 20.5 25.9 67.3 51.5 173.5
07/05 21:50 11.4 45 4.62 -0.1 28 35 1013.1 0 11.2 20.4 25.8 66.9 51.2 172.5
07/05 21:40 11.7 44 4.6 -0.1 39 43 1013.1 0 11.2 20.3 25.6 66.5 50.7 171.0
07/05 21:30 11.5 45 4.65 0 30 43 1013.1 0 11.3 20.5 25.8 67.1 51.5 173.5
07/05 21:20 11.5 45 4.65 0 35 41 1013.1 0 11.3 20.5 25.8 67.1 51.5 173.5
07/05 21:10 11.4 45 4.62 -0.1 28 39 1013.1 0 11.2 20.4 25.8 66.9 51.2 172.5
07/05 21:00 11.5 45 4.65 0 28 37 1013.1 0 11.3 20.5 25.8 67.1 51.5 173.5
07/05 20:50 11.4 45 4.62 -0.1 24 30 1013.1 0 11.2 20.4 25.8 66.9 51.2 172.5
07/05 20:40 11.5 45 4.65 0 15 20 1013.1 0 11.3 20.5 25.8 67.1 51.5 173.5
07/05 20:30 11.7 44 4.6 -0.1 22 35 1013.1 0 11.2 20.3 25.6 66.5 50.7 171.0
07/05 20:20 11.7 44 4.6 -0.1 20 28 1013.1 0 11.2 20.3 25.6 66.5 50.7 171.0
07/05 20:10 11.7 44 4.6 -0.1 24 35 1013.1 0 11.2 20.3 25.6 66.5 50.7 171.0
07/05 20:00 11.7 44 4.6 -0.1 26 46 1013.1 0 11.2 20.3 25.6 66.5 50.7 171.0
07/05 19:50 11.8 43 4.53 -0.4 22 32 1013.1 0 11.0 20.2 25.3 65.7 49.9 168.0

Last Refresh: 08-May-2026 12:09:36

Bureau of Meteorology